sensor_id;sensor_type;location;lat;lon;timestamp;temperature;humidity
52941;DHT22;62001;53.366;6.636;2023-04-24T00:00:56;10.70;99.90
52941;DHT22;62001;53.366;6.636;2023-04-24T00:03:25;10.70;99.90
52941;DHT22;62001;53.366;6.636;2023-04-24T00:05:51;10.70;99.90
52941;DHT22;62001;53.366;6.636;2023-04-24T00:08:18;10.70;99.90
52941;DHT22;62001;53.366;6.636;2023-04-24T00:10:44;10.70;99.90
52941;DHT22;62001;53.366;6.636;2023-04-24T00:13:10;10.60;99.90
52941;DHT22;62001;53.366;6.636;2023-04-24T00:15:36;10.60;99.90
52941;DHT22;62001;53.366;6.636;2023-04-24T00:18:01;10.60;99.90
52941;DHT22;62001;53.366;6.636;2023-04-24T00:20:29;10.60;99.90
52941;DHT22;62001;53.366;6.636;2023-04-24T00:22:55;10.60;99.90
52941;DHT22;62001;53.366;6.636;2023-04-24T00:25:21;10.60;99.90
52941;DHT22;62001;53.366;6.636;2023-04-24T00:27:47;10.60;99.90
52941;DHT22;62001;53.366;6.636;2023-04-24T00:30:13;10.60;99.90
52941;DHT22;62001;53.366;6.636;2023-04-24T00:32:39;10.60;99.90
52941;DHT22;62001;53.366;6.636;2023-04-24T00:35:06;10.60;99.90
52941;DHT22;62001;53.366;6.636;2023-04-24T00:37:32;10.60;99.90
52941;DHT22;62001;53.366;6.636;2023-04-24T00:39:58;10.60;99.90
52941;DHT22;62001;53.366;6.636;2023-04-24T00:42:24;10.60;99.90
52941;DHT22;62001;53.366;6.636;2023-04-24T00:44:50;10.60;99.90
52941;DHT22;62001;53.366;6.636;2023-04-24T00:47:16;10.60;99.90
52941;DHT22;62001;53.366;6.636;2023-04-24T00:49:44;10.60;99.90
52941;DHT22;62001;53.366;6.636;2023-04-24T00:52:10;10.60;99.90
52941;DHT22;62001;53.366;6.636;2023-04-24T00:54:36;10.60;99.90
52941;DHT22;62001;53.366;6.636;2023-04-24T00:57:05;10.60;99.90
52941;DHT22;62001;53.366;6.636;2023-04-24T00:59:31;10.60;99.90
52941;DHT22;62001;53.366;6.636;2023-04-24T01:01:58;10.60;99.90
52941;DHT22;62001;53.366;6.636;2023-04-24T01:04:24;10.60;99.90
52941;DHT22;62001;53.366;6.636;2023-04-24T01:06:51;10.50;99.90
52941;DHT22;62001;53.366;6.636;2023-04-24T01:09:18;10.50;99.90
52941;DHT22;62001;53.366;6.636;2023-04-24T01:11:44;10.50;99.90
52941;DHT22;62001;53.366;6.636;2023-04-24T01:14:10;10.50;99.90
52941;DHT22;62001;53.366;6.636;2023-04-24T01:16:36;10.50;99.90
52941;DHT22;62001;53.366;6.636;2023-04-24T01:19:05;10.50;99.90
52941;DHT22;62001;53.366;6.636;2023-04-24T01:21:34;10.40;99.90
52941;DHT22;62001;53.366;6.636;2023-04-24T01:24:03;10.40;99.90
52941;DHT22;62001;53.366;6.636;2023-04-24T01:26:29;10.30;99.90
52941;DHT22;62001;53.366;6.636;2023-04-24T01:28:55;10.30;99.90
52941;DHT22;62001;53.366;6.636;2023-04-24T01:31:21;10.20;99.90
52941;DHT22;62001;53.366;6.636;2023-04-24T01:33:48;10.20;99.90
52941;DHT22;62001;53.366;6.636;2023-04-24T01:36:14;10.20;99.90
52941;DHT22;62001;53.366;6.636;2023-04-24T01:38:41;10.10;99.90
52941;DHT22;62001;53.366;6.636;2023-04-24T01:41:07;10.10;99.90
52941;DHT22;62001;53.366;6.636;2023-04-24T01:43:33;10.10;99.90
52941;DHT22;62001;53.366;6.636;2023-04-24T01:45:59;10.10;99.90
52941;DHT22;62001;53.366;6.636;2023-04-24T01:48:25;10.10;99.90
52941;DHT22;62001;53.366;6.636;2023-04-24T01:50:51;10.00;99.90
52941;DHT22;62001;53.366;6.636;2023-04-24T01:53:17;10.00;99.90
52941;DHT22;62001;53.366;6.636;2023-04-24T01:55:43;10.00;99.90
52941;DHT22;62001;53.366;6.636;2023-04-24T01:58:09;10.00;99.90
52941;DHT22;62001;53.366;6.636;2023-04-24T02:00:35;10.00;99.90
52941;DHT22;62001;53.366;6.636;2023-04-24T02:03:01;9.90;99.90
52941;DHT22;62001;53.366;6.636;2023-04-24T02:05:27;9.90;99.90
52941;DHT22;62001;53.366;6.636;2023-04-24T02:07:53;9.90;99.90
52941;DHT22;62001;53.366;6.636;2023-04-24T02:10:19;9.90;99.90
52941;DHT22;62001;53.366;6.636;2023-04-24T02:12:45;9.90;99.90
52941;DHT22;62001;53.366;6.636;2023-04-24T02:15:11;9.90;99.90
52941;DHT22;62001;53.366;6.636;2023-04-24T02:17:38;9.90;99.90
52941;DHT22;62001;53.366;6.636;2023-04-24T02:20:05;9.90;99.90
52941;DHT22;62001;53.366;6.636;2023-04-24T02:22:32;9.90;99.90
52941;DHT22;62001;53.366;6.636;2023-04-24T02:24:57;9.90;99.90
52941;DHT22;62001;53.366;6.636;2023-04-24T02:27:23;9.90;99.90
52941;DHT22;62001;53.366;6.636;2023-04-24T02:29:49;9.90;99.90
52941;DHT22;62001;53.366;6.636;2023-04-24T02:32:15;9.90;99.90
52941;DHT22;62001;53.366;6.636;2023-04-24T02:34:41;9.90;99.90
52941;DHT22;62001;53.366;6.636;2023-04-24T02:37:07;9.90;99.90
52941;DHT22;62001;53.366;6.636;2023-04-24T02:39:33;9.90;99.90
52941;DHT22;62001;53.366;6.636;2023-04-24T02:41:58;9.90;99.90
52941;DHT22;62001;53.366;6.636;2023-04-24T02:44:25;9.90;99.90
52941;DHT22;62001;53.366;6.636;2023-04-24T02:46:51;9.90;99.90
52941;DHT22;62001;53.366;6.636;2023-04-24T02:49:17;9.90;99.90
52941;DHT22;62001;53.366;6.636;2023-04-24T02:51:43;9.90;99.90
52941;DHT22;62001;53.366;6.636;2023-04-24T02:54:09;9.90;99.90
52941;DHT22;62001;53.366;6.636;2023-04-24T02:56:37;9.90;99.90
52941;DHT22;62001;53.366;6.636;2023-04-24T02:59:03;9.90;99.90
52941;DHT22;62001;53.366;6.636;2023-04-24T03:01:29;9.90;99.90
52941;DHT22;62001;53.366;6.636;2023-04-24T03:03:55;9.90;99.90
52941;DHT22;62001;53.366;6.636;2023-04-24T03:06:21;9.90;99.90
52941;DHT22;62001;53.366;6.636;2023-04-24T03:08:47;9.90;99.90
52941;DHT22;62001;53.366;6.636;2023-04-24T03:11:12;10.00;99.90
52941;DHT22;62001;53.366;6.636;2023-04-24T03:13:38;10.00;99.90
52941;DHT22;62001;53.366;6.636;2023-04-24T03:16:05;10.00;99.90
52941;DHT22;62001;53.366;6.636;2023-04-24T03:18:31;10.00;99.90
52941;DHT22;62001;53.366;6.636;2023-04-24T03:20:57;10.00;99.90
52941;DHT22;62001;53.366;6.636;2023-04-24T03:23:23;10.00;99.90
52941;DHT22;62001;53.366;6.636;2023-04-24T03:25:49;10.00;99.90
52941;DHT22;62001;53.366;6.636;2023-04-24T03:28:14;10.10;99.90
52941;DHT22;62001;53.366;6.636;2023-04-24T03:30:40;10.00;99.90
52941;DHT22;62001;53.366;6.636;2023-04-24T03:33:06;10.10;99.90
52941;DHT22;62001;53.366;6.636;2023-04-24T03:35:32;10.10;99.90
52941;DHT22;62001;53.366;6.636;2023-04-24T03:37:58;10.10;99.90
52941;DHT22;62001;53.366;6.636;2023-04-24T03:40:24;10.10;99.90
52941;DHT22;62001;53.366;6.636;2023-04-24T03:42:49;10.10;99.90
52941;DHT22;62001;53.366;6.636;2023-04-24T03:45:15;10.10;99.90
52941;DHT22;62001;53.366;6.636;2023-04-24T03:47:41;10.10;99.90
52941;DHT22;62001;53.366;6.636;2023-04-24T03:50:07;10.20;99.90
52941;DHT22;62001;53.366;6.636;2023-04-24T03:52:33;10.10;99.90
52941;DHT22;62001;53.366;6.636;2023-04-24T03:54:59;10.20;99.90
52941;DHT22;62001;53.366;6.636;2023-04-24T03:57:25;10.20;99.90
52941;DHT22;62001;53.366;6.636;2023-04-24T03:59:50;10.20;99.90
52941;DHT22;62001;53.366;6.636;2023-04-24T04:02:17;10.20;99.90
52941;DHT22;62001;53.366;6.636;2023-04-24T04:04:42;10.20;99.90
52941;DHT22;62001;53.366;6.636;2023-04-24T04:07:08;10.20;99.90
52941;DHT22;62001;53.366;6.636;2023-04-24T04:09:34;10.30;99.90
52941;DHT22;62001;53.366;6.636;2023-04-24T04:12:00;10.20;99.90
52941;DHT22;62001;53.366;6.636;2023-04-24T04:14:27;10.30;99.90
52941;DHT22;62001;53.366;6.636;2023-04-24T04:16:52;10.30;99.90
52941;DHT22;62001;53.366;6.636;2023-04-24T04:19:18;10.30;99.90
52941;DHT22;62001;53.366;6.636;2023-04-24T04:21:44;10.30;99.90
52941;DHT22;62001;53.366;6.636;2023-04-24T04:24:11;10.30;99.90
52941;DHT22;62001;53.366;6.636;2023-04-24T04:26:37;10.30;99.90
52941;DHT22;62001;53.366;6.636;2023-04-24T04:29:04;10.30;99.90
52941;DHT22;62001;53.366;6.636;2023-04-24T04:31:29;10.40;99.90
52941;DHT22;62001;53.366;6.636;2023-04-24T04:33:56;10.30;99.90
52941;DHT22;62001;53.366;6.636;2023-04-24T04:36:22;10.40;99.90
52941;DHT22;62001;53.366;6.636;2023-04-24T04:38:49;10.40;99.90
52941;DHT22;62001;53.366;6.636;2023-04-24T04:41:15;10.40;99.90
52941;DHT22;62001;53.366;6.636;2023-04-24T04:43:43;10.40;99.90
52941;DHT22;62001;53.366;6.636;2023-04-24T04:46:09;10.40;99.90
52941;DHT22;62001;53.366;6.636;2023-04-24T04:48:36;10.40;99.90
52941;DHT22;62001;53.366;6.636;2023-04-24T04:51:03;10.40;99.90
52941;DHT22;62001;53.366;6.636;2023-04-24T04:53:29;10.40;99.90
52941;DHT22;62001;53.366;6.636;2023-04-24T04:55:54;10.40;99.90
52941;DHT22;62001;53.366;6.636;2023-04-24T04:58:20;10.40;99.90
52941;DHT22;62001;53.366;6.636;2023-04-24T05:00:46;10.40;99.90
52941;DHT22;62001;53.366;6.636;2023-04-24T05:03:13;10.40;99.90
52941;DHT22;62001;53.366;6.636;2023-04-24T05:05:39;10.40;99.90
52941;DHT22;62001;53.366;6.636;2023-04-24T05:08:07;10.40;99.90
52941;DHT22;62001;53.366;6.636;2023-04-24T05:10:33;10.40;99.90
52941;DHT22;62001;53.366;6.636;2023-04-24T05:12:59;10.40;99.90
52941;DHT22;62001;53.366;6.636;2023-04-24T05:15:26;10.50;99.90
52941;DHT22;62001;53.366;6.636;2023-04-24T05:17:51;10.50;99.90
52941;DHT22;62001;53.366;6.636;2023-04-24T05:20:17;10.40;99.90
52941;DHT22;62001;53.366;6.636;2023-04-24T05:22:43;10.40;99.90
52941;DHT22;62001;53.366;6.636;2023-04-24T05:25:09;10.50;99.90
52941;DHT22;62001;53.366;6.636;2023-04-24T05:27:35;10.40;99.90
52941;DHT22;62001;53.366;6.636;2023-04-24T05:30:01;10.40;99.90
52941;DHT22;62001;53.366;6.636;2023-04-24T05:32:27;10.40;99.90
52941;DHT22;62001;53.366;6.636;2023-04-24T05:34:52;10.30;99.90
52941;DHT22;62001;53.366;6.636;2023-04-24T05:37:18;10.30;99.90
52941;DHT22;62001;53.366;6.636;2023-04-24T05:39:44;10.40;99.90
52941;DHT22;62001;53.366;6.636;2023-04-24T05:42:10;10.30;99.90
52941;DHT22;62001;53.366;6.636;2023-04-24T05:44:36;10.40;99.90
52941;DHT22;62001;53.366;6.636;2023-04-24T05:47:01;10.30;99.90
52941;DHT22;62001;53.366;6.636;2023-04-24T05:49:27;10.30;99.90
52941;DHT22;62001;53.366;6.636;2023-04-24T05:51:53;10.30;99.90
52941;DHT22;62001;53.366;6.636;2023-04-24T05:54:19;10.30;99.90
52941;DHT22;62001;53.366;6.636;2023-04-24T05:56:45;10.30;99.90
52941;DHT22;62001;53.366;6.636;2023-04-24T05:59:10;10.20;99.90
52941;DHT22;62001;53.366;6.636;2023-04-24T06:01:36;10.20;99.90
52941;DHT22;62001;53.366;6.636;2023-04-24T06:04:03;10.30;99.90
52941;DHT22;62001;53.366;6.636;2023-04-24T06:06:30;10.20;99.90
52941;DHT22;62001;53.366;6.636;2023-04-24T06:08:56;10.20;99.90
52941;DHT22;62001;53.366;6.636;2023-04-24T06:11:24;10.20;99.90
52941;DHT22;62001;53.366;6.636;2023-04-24T06:13:50;10.20;99.90
52941;DHT22;62001;53.366;6.636;2023-04-24T06:16:17;10.20;99.90
52941;DHT22;62001;53.366;6.636;2023-04-24T06:18:43;10.20;99.90
52941;DHT22;62001;53.366;6.636;2023-04-24T06:21:10;10.30;99.90
52941;DHT22;62001;53.366;6.636;2023-04-24T06:23:36;10.30;99.90
52941;DHT22;62001;53.366;6.636;2023-04-24T06:26:02;10.30;99.90
52941;DHT22;62001;53.366;6.636;2023-04-24T06:28:27;10.30;99.90
52941;DHT22;62001;53.366;6.636;2023-04-24T06:30:53;10.30;99.90
52941;DHT22;62001;53.366;6.636;2023-04-24T06:33:19;10.30;99.90
52941;DHT22;62001;53.366;6.636;2023-04-24T06:35:45;10.40;99.90
52941;DHT22;62001;53.366;6.636;2023-04-24T06:38:11;10.30;99.90
52941;DHT22;62001;53.366;6.636;2023-04-24T06:40:37;10.30;99.90
52941;DHT22;62001;53.366;6.636;2023-04-24T06:43:03;10.30;99.90
52941;DHT22;62001;53.366;6.636;2023-04-24T06:45:30;10.30;99.90
52941;DHT22;62001;53.366;6.636;2023-04-24T06:47:56;10.30;99.90
52941;DHT22;62001;53.366;6.636;2023-04-24T06:50:22;10.20;99.90
52941;DHT22;62001;53.366;6.636;2023-04-24T06:52:48;10.20;99.90
52941;DHT22;62001;53.366;6.636;2023-04-24T06:55:14;10.20;99.90
52941;DHT22;62001;53.366;6.636;2023-04-24T06:57:42;10.20;99.90
52941;DHT22;62001;53.366;6.636;2023-04-24T07:00:08;10.20;99.90
52941;DHT22;62001;53.366;6.636;2023-04-24T07:02:35;10.20;99.90
52941;DHT22;62001;53.366;6.636;2023-04-24T07:05:01;10.20;99.90
52941;DHT22;62001;53.366;6.636;2023-04-24T07:07:27;10.20;99.90
52941;DHT22;62001;53.366;6.636;2023-04-24T07:09:53;10.30;99.90
52941;DHT22;62001;53.366;6.636;2023-04-24T07:12:19;10.30;99.90
52941;DHT22;62001;53.366;6.636;2023-04-24T07:14:47;10.30;99.90
52941;DHT22;62001;53.366;6.636;2023-04-24T07:17:13;10.30;99.90
52941;DHT22;62001;53.366;6.636;2023-04-24T07:19:40;10.30;99.90
52941;DHT22;62001;53.366;6.636;2023-04-24T07:22:06;10.40;99.90
52941;DHT22;62001;53.366;6.636;2023-04-24T07:24:31;10.30;99.90
52941;DHT22;62001;53.366;6.636;2023-04-24T07:26:58;10.30;99.90
52941;DHT22;62001;53.366;6.636;2023-04-24T07:29:24;10.30;99.90
52941;DHT22;62001;53.366;6.636;2023-04-24T07:31:50;10.30;99.90
52941;DHT22;62001;53.366;6.636;2023-04-24T07:34:16;10.20;99.90
52941;DHT22;62001;53.366;6.636;2023-04-24T07:36:41;10.20;99.90
52941;DHT22;62001;53.366;6.636;2023-04-24T07:39:08;10.20;99.90
52941;DHT22;62001;53.366;6.636;2023-04-24T07:41:34;10.20;99.90
52941;DHT22;62001;53.366;6.636;2023-04-24T07:43:59;10.10;99.90
52941;DHT22;62001;53.366;6.636;2023-04-24T07:46:25;10.10;99.90
52941;DHT22;62001;53.366;6.636;2023-04-24T07:48:55;10.00;99.90
52941;DHT22;62001;53.366;6.636;2023-04-24T07:51:21;10.10;99.90
52941;DHT22;62001;53.366;6.636;2023-04-24T07:53:47;10.10;99.90
52941;DHT22;62001;53.366;6.636;2023-04-24T07:56:13;10.00;99.90
52941;DHT22;62001;53.366;6.636;2023-04-24T07:58:39;10.10;99.90
52941;DHT22;62001;53.366;6.636;2023-04-24T08:01:05;10.10;99.90
52941;DHT22;62001;53.366;6.636;2023-04-24T08:03:31;10.10;99.90
52941;DHT22;62001;53.366;6.636;2023-04-24T08:05:57;10.10;99.90
52941;DHT22;62001;53.366;6.636;2023-04-24T08:08:23;10.00;99.90
52941;DHT22;62001;53.366;6.636;2023-04-24T08:10:49;10.00;99.90
52941;DHT22;62001;53.366;6.636;2023-04-24T08:13:16;10.10;99.90
52941;DHT22;62001;53.366;6.636;2023-04-24T08:15:41;10.10;99.90
52941;DHT22;62001;53.366;6.636;2023-04-24T08:18:07;10.00;99.90
52941;DHT22;62001;53.366;6.636;2023-04-24T08:20:34;10.10;99.90
52941;DHT22;62001;53.366;6.636;2023-04-24T08:23:00;10.10;99.90
52941;DHT22;62001;53.366;6.636;2023-04-24T08:25:25;10.10;99.90
52941;DHT22;62001;53.366;6.636;2023-04-24T08:27:51;10.10;99.90
52941;DHT22;62001;53.366;6.636;2023-04-24T08:30:18;10.10;99.90
52941;DHT22;62001;53.366;6.636;2023-04-24T08:32:44;10.20;99.90
52941;DHT22;62001;53.366;6.636;2023-04-24T08:35:10;10.30;99.90
52941;DHT22;62001;53.366;6.636;2023-04-24T08:37:36;10.30;99.90
52941;DHT22;62001;53.366;6.636;2023-04-24T08:40:06;10.30;99.90
52941;DHT22;62001;53.366;6.636;2023-04-24T08:42:37;10.30;99.90
52941;DHT22;62001;53.366;6.636;2023-04-24T08:45:03;10.20;99.90
52941;DHT22;62001;53.366;6.636;2023-04-24T08:47:30;10.20;99.90
52941;DHT22;62001;53.366;6.636;2023-04-24T08:49:57;10.10;99.90
52941;DHT22;62001;53.366;6.636;2023-04-24T08:52:25;10.10;99.90
52941;DHT22;62001;53.366;6.636;2023-04-24T08:54:52;10.00;99.90
52941;DHT22;62001;53.366;6.636;2023-04-24T08:57:19;10.00;99.90
52941;DHT22;62001;53.366;6.636;2023-04-24T08:59:45;9.90;99.90
52941;DHT22;62001;53.366;6.636;2023-04-24T09:02:12;9.90;99.90
52941;DHT22;62001;53.366;6.636;2023-04-24T09:04:40;9.80;99.90
52941;DHT22;62001;53.366;6.636;2023-04-24T09:07:08;9.80;99.90
52941;DHT22;62001;53.366;6.636;2023-04-24T09:09:36;9.70;99.90
52941;DHT22;62001;53.366;6.636;2023-04-24T09:12:03;9.70;99.90
52941;DHT22;62001;53.366;6.636;2023-04-24T09:14:30;9.70;99.90
52941;DHT22;62001;53.366;6.636;2023-04-24T09:16:57;9.70;99.90
52941;DHT22;62001;53.366;6.636;2023-04-24T09:19:23;9.60;99.90
52941;DHT22;62001;53.366;6.636;2023-04-24T09:21:49;9.60;99.90
52941;DHT22;62001;53.366;6.636;2023-04-24T09:24:20;9.70;99.90
52941;DHT22;62001;53.366;6.636;2023-04-24T09:26:48;9.70;99.90
52941;DHT22;62001;53.366;6.636;2023-04-24T09:29:18;9.80;99.90
52941;DHT22;62001;53.366;6.636;2023-04-24T09:31:45;9.80;99.90
52941;DHT22;62001;53.366;6.636;2023-04-24T09:34:12;9.80;99.90
52941;DHT22;62001;53.366;6.636;2023-04-24T09:36:40;9.90;99.90
52941;DHT22;62001;53.366;6.636;2023-04-24T09:39:12;9.90;99.90
52941;DHT22;62001;53.366;6.636;2023-04-24T09:41:52;9.90;99.90
52941;DHT22;62001;53.366;6.636;2023-04-24T09:44:19;9.90;99.90
52941;DHT22;62001;53.366;6.636;2023-04-24T09:46:50;9.80;99.90
52941;DHT22;62001;53.366;6.636;2023-04-24T09:49:21;9.90;99.90
52941;DHT22;62001;53.366;6.636;2023-04-24T09:51:48;9.90;99.90
52941;DHT22;62001;53.366;6.636;2023-04-24T09:54:18;10.00;99.90
52941;DHT22;62001;53.366;6.636;2023-04-24T09:56:47;10.00;99.90
52941;DHT22;62001;53.366;6.636;2023-04-24T09:59:17;10.00;99.90
52941;DHT22;62001;53.366;6.636;2023-04-24T10:01:44;9.90;99.90
52941;DHT22;62001;53.366;6.636;2023-04-24T10:04:20;9.80;99.90
52941;DHT22;62001;53.366;6.636;2023-04-24T10:06:47;9.90;99.90
52941;DHT22;62001;53.366;6.636;2023-04-24T10:09:15;9.80;99.90
52941;DHT22;62001;53.366;6.636;2023-04-24T10:11:43;9.90;99.90
52941;DHT22;62001;53.366;6.636;2023-04-24T10:14:18;9.90;99.90
52941;DHT22;62001;53.366;6.636;2023-04-24T10:16:44;10.00;99.90
52941;DHT22;62001;53.366;6.636;2023-04-24T10:19:16;10.20;99.90
52941;DHT22;62001;53.366;6.636;2023-04-24T10:21:44;10.40;99.90
52941;DHT22;62001;53.366;6.636;2023-04-24T10:24:17;10.50;99.90
52941;DHT22;62001;53.366;6.636;2023-04-24T10:26:45;10.70;99.90
52941;DHT22;62001;53.366;6.636;2023-04-24T10:29:16;10.90;99.90
52941;DHT22;62001;53.366;6.636;2023-04-24T10:31:43;11.00;99.90
52941;DHT22;62001;53.366;6.636;2023-04-24T10:34:11;11.10;99.90
52941;DHT22;62001;53.366;6.636;2023-04-24T10:36:40;11.10;99.90
52941;DHT22;62001;53.366;6.636;2023-04-24T10:39:09;11.00;99.90
52941;DHT22;62001;53.366;6.636;2023-04-24T10:41:37;10.90;99.90
52941;DHT22;62001;53.366;6.636;2023-04-24T10:44:14;10.80;99.90
52941;DHT22;62001;53.366;6.636;2023-04-24T10:46:53;10.80;99.90
52941;DHT22;62001;53.366;6.636;2023-04-24T10:49:28;10.70;99.90
52941;DHT22;62001;53.366;6.636;2023-04-24T10:52:00;10.60;99.90
52941;DHT22;62001;53.366;6.636;2023-04-24T10:54:36;10.50;99.90
52941;DHT22;62001;53.366;6.636;2023-04-24T11:00:10;10.70;99.90
52941;DHT22;62001;53.366;6.636;2023-04-24T11:02:39;10.80;99.90
52941;DHT22;62001;53.366;6.636;2023-04-24T11:05:09;10.90;99.90
52941;DHT22;62001;53.366;6.636;2023-04-24T11:10:44;11.10;99.90
52941;DHT22;62001;53.366;6.636;2023-04-24T11:13:10;11.10;99.90
52941;DHT22;62001;53.366;6.636;2023-04-24T11:15:36;11.20;99.90
52941;DHT22;62001;53.366;6.636;2023-04-24T11:18:03;11.30;99.90
52941;DHT22;62001;53.366;6.636;2023-04-24T11:20:29;11.40;99.90
52941;DHT22;62001;53.366;6.636;2023-04-24T11:22:55;11.50;99.90
52941;DHT22;62001;53.366;6.636;2023-04-24T11:25:23;11.60;99.90
52941;DHT22;62001;53.366;6.636;2023-04-24T11:27:49;11.80;99.90
52941;DHT22;62001;53.366;6.636;2023-04-24T11:30:19;11.90;99.90
52941;DHT22;62001;53.366;6.636;2023-04-24T11:32:49;12.10;99.90
52941;DHT22;62001;53.366;6.636;2023-04-24T11:35:20;12.30;99.90
52941;DHT22;62001;53.366;6.636;2023-04-24T11:37:51;12.40;99.90
52941;DHT22;62001;53.366;6.636;2023-04-24T11:40:18;12.60;99.90
52941;DHT22;62001;53.366;6.636;2023-04-24T11:42:47;12.70;99.90
52941;DHT22;62001;53.366;6.636;2023-04-24T11:45:24;12.70;99.90
52941;DHT22;62001;53.366;6.636;2023-04-24T11:47:50;12.70;99.90
52941;DHT22;62001;53.366;6.636;2023-04-24T11:50:19;12.70;99.90
52941;DHT22;62001;53.366;6.636;2023-04-24T11:52:47;12.60;99.90
52941;DHT22;62001;53.366;6.636;2023-04-24T11:57:45;12.40;99.90
52941;DHT22;62001;53.366;6.636;2023-04-24T12:00:19;12.40;99.90
52941;DHT22;62001;53.366;6.636;2023-04-24T12:02:46;12.30;99.90
52941;DHT22;62001;53.366;6.636;2023-04-24T12:05:22;12.10;99.90
52941;DHT22;62001;53.366;6.636;2023-04-24T12:07:48;12.10;99.90
52941;DHT22;62001;53.366;6.636;2023-04-24T12:10:23;12.00;99.90
52941;DHT22;62001;53.366;6.636;2023-04-24T12:12:49;11.90;99.90
52941;DHT22;62001;53.366;6.636;2023-04-24T12:15:18;11.70;99.90
52941;DHT22;62001;53.366;6.636;2023-04-24T12:17:44;11.60;99.90
52941;DHT22;62001;53.366;6.636;2023-04-24T12:20:11;11.40;99.90
52941;DHT22;62001;53.366;6.636;2023-04-24T12:22:54;11.30;99.90
52941;DHT22;62001;53.366;6.636;2023-04-24T12:25:22;11.20;99.90
52941;DHT22;62001;53.366;6.636;2023-04-24T12:28:11;11.00;99.90
52941;DHT22;62001;53.366;6.636;2023-04-24T12:30:44;10.90;99.90
52941;DHT22;62001;53.366;6.636;2023-04-24T12:33:18;10.90;99.90
52941;DHT22;62001;53.366;6.636;2023-04-24T12:35:44;10.90;99.90
52941;DHT22;62001;53.366;6.636;2023-04-24T12:38:12;10.90;99.90
52941;DHT22;62001;53.366;6.636;2023-04-24T12:40:39;10.90;99.90
52941;DHT22;62001;53.366;6.636;2023-04-24T12:43:16;10.90;99.90
52941;DHT22;62001;53.366;6.636;2023-04-24T12:45:42;10.80;99.90
52941;DHT22;62001;53.366;6.636;2023-04-24T12:48:09;10.60;99.90
52941;DHT22;62001;53.366;6.636;2023-04-24T12:50:35;10.50;99.90
52941;DHT22;62001;53.366;6.636;2023-04-24T12:53:01;10.40;99.90
52941;DHT22;62001;53.366;6.636;2023-04-24T12:55:27;10.30;99.90
52941;DHT22;62001;53.366;6.636;2023-04-24T12:57:52;10.20;99.90
52941;DHT22;62001;53.366;6.636;2023-04-24T13:00:20;10.10;99.90
52941;DHT22;62001;53.366;6.636;2023-04-24T13:02:47;10.20;99.90
52941;DHT22;62001;53.366;6.636;2023-04-24T13:05:13;10.30;99.90
52941;DHT22;62001;53.366;6.636;2023-04-24T13:07:39;10.50;99.90
52941;DHT22;62001;53.366;6.636;2023-04-24T13:10:06;10.60;99.90
52941;DHT22;62001;53.366;6.636;2023-04-24T13:12:32;10.60;99.90
52941;DHT22;62001;53.366;6.636;2023-04-24T13:14:58;10.60;99.90
52941;DHT22;62001;53.366;6.636;2023-04-24T13:17:24;10.60;99.90
52941;DHT22;62001;53.366;6.636;2023-04-24T13:19:51;10.60;99.90
52941;DHT22;62001;53.366;6.636;2023-04-24T13:22:18;10.60;99.90
52941;DHT22;62001;53.366;6.636;2023-04-24T13:24:47;10.70;99.90
52941;DHT22;62001;53.366;6.636;2023-04-24T13:27:16;10.70;99.90
52941;DHT22;62001;53.366;6.636;2023-04-24T13:29:42;10.60;99.90
52941;DHT22;62001;53.366;6.636;2023-04-24T13:32:09;10.50;99.90
52941;DHT22;62001;53.366;6.636;2023-04-24T13:34:35;10.40;99.90
52941;DHT22;62001;53.366;6.636;2023-04-24T13:37:02;10.30;99.90
52941;DHT22;62001;53.366;6.636;2023-04-24T13:39:31;10.20;99.90
52941;DHT22;62001;53.366;6.636;2023-04-24T13:41:58;10.10;99.90
52941;DHT22;62001;53.366;6.636;2023-04-24T13:44:23;10.20;99.90
52941;DHT22;62001;53.366;6.636;2023-04-24T13:46:51;10.40;99.90
52941;DHT22;62001;53.366;6.636;2023-04-24T13:49:19;10.60;99.90
52941;DHT22;62001;53.366;6.636;2023-04-24T13:51:45;10.80;99.90
52941;DHT22;62001;53.366;6.636;2023-04-24T13:54:11;11.10;99.90
52941;DHT22;62001;53.366;6.636;2023-04-24T13:56:37;11.20;99.90
52941;DHT22;62001;53.366;6.636;2023-04-24T13:59:03;11.30;99.90
52941;DHT22;62001;53.366;6.636;2023-04-24T14:01:30;11.30;99.90
52941;DHT22;62001;53.366;6.636;2023-04-24T14:03:56;11.30;99.90
52941;DHT22;62001;53.366;6.636;2023-04-24T14:06:23;11.20;99.90
52941;DHT22;62001;53.366;6.636;2023-04-24T14:08:49;11.00;99.90
52941;DHT22;62001;53.366;6.636;2023-04-24T14:11:16;10.80;99.90
52941;DHT22;62001;53.366;6.636;2023-04-24T14:13:43;10.60;99.90
52941;DHT22;62001;53.366;6.636;2023-04-24T14:16:09;10.40;99.90
52941;DHT22;62001;53.366;6.636;2023-04-24T14:18:36;10.30;99.90
52941;DHT22;62001;53.366;6.636;2023-04-24T14:21:02;10.10;99.90
52941;DHT22;62001;53.366;6.636;2023-04-24T14:23:28;10.10;99.90
52941;DHT22;62001;53.366;6.636;2023-04-24T14:25:55;10.00;99.90
52941;DHT22;62001;53.366;6.636;2023-04-24T14:28:21;9.90;99.90
52941;DHT22;62001;53.366;6.636;2023-04-24T14:30:47;9.80;99.90
52941;DHT22;62001;53.366;6.636;2023-04-24T14:33:14;9.70;99.90
52941;DHT22;62001;53.366;6.636;2023-04-24T14:35:41;9.70;99.90
52941;DHT22;62001;53.366;6.636;2023-04-24T14:38:10;9.70;99.90
52941;DHT22;62001;53.366;6.636;2023-04-24T14:40:36;9.60;99.90
52941;DHT22;62001;53.366;6.636;2023-04-24T14:43:02;9.60;99.90
52941;DHT22;62001;53.366;6.636;2023-04-24T14:45:28;9.50;99.90
52941;DHT22;62001;53.366;6.636;2023-04-24T14:47:55;9.50;99.90
52941;DHT22;62001;53.366;6.636;2023-04-24T14:50:21;9.50;99.90
52941;DHT22;62001;53.366;6.636;2023-04-24T14:52:47;9.40;99.90
52941;DHT22;62001;53.366;6.636;2023-04-24T14:55:13;9.40;99.90
52941;DHT22;62001;53.366;6.636;2023-04-24T14:57:40;9.40;99.90
52941;DHT22;62001;53.366;6.636;2023-04-24T15:00:07;9.40;99.90
52941;DHT22;62001;53.366;6.636;2023-04-24T15:02:36;9.40;99.90
52941;DHT22;62001;53.366;6.636;2023-04-24T15:05:06;9.40;99.90
52941;DHT22;62001;53.366;6.636;2023-04-24T15:07:32;9.40;99.90
52941;DHT22;62001;53.366;6.636;2023-04-24T15:09:58;9.40;99.90
52941;DHT22;62001;53.366;6.636;2023-04-24T15:12:24;9.50;99.90
52941;DHT22;62001;53.366;6.636;2023-04-24T15:14:50;9.60;99.90
52941;DHT22;62001;53.366;6.636;2023-04-24T15:17:16;9.60;99.90
52941;DHT22;62001;53.366;6.636;2023-04-24T15:19:42;9.60;99.90
52941;DHT22;62001;53.366;6.636;2023-04-24T15:22:09;9.60;99.90
52941;DHT22;62001;53.366;6.636;2023-04-24T15:24:35;9.60;99.90
52941;DHT22;62001;53.366;6.636;2023-04-24T15:27:01;9.70;99.90
52941;DHT22;62001;53.366;6.636;2023-04-24T15:29:27;9.70;99.90
52941;DHT22;62001;53.366;6.636;2023-04-24T15:31:53;9.80;99.90
52941;DHT22;62001;53.366;6.636;2023-04-24T15:34:19;9.80;99.90
52941;DHT22;62001;53.366;6.636;2023-04-24T15:36:45;9.90;99.90
52941;DHT22;62001;53.366;6.636;2023-04-24T15:39:11;9.90;99.90
52941;DHT22;62001;53.366;6.636;2023-04-24T15:41:37;9.90;99.90